Time;durP1;ratioP1;P1;durP2;ratioP2;P2;SDS_P1;SDS_P2;PMS_P1;PMS_P2;Temp;Humidity;BMP_temperature;BMP_pressure;BME280_temperature;BME280_humidity;BME280_pressure;Samples;Min_cycle;Max_cycle;Signal;HPM_P1;HPM_P2
2022/10/06 00:04:46;;;;;;;3.45;1.48;;;18.40;97.50;;;;;;10061718;28;20034;-66
2022/10/06 00:09:37;;;;;;;2.35;1.63;;;18.40;97.60;;;;;;10054863;28;20076;-66
2022/10/06 00:14:28;;;;;;;2.67;1.98;;;18.40;97.80;;;;;;10058353;28;20128;-67
2022/10/06 00:19:18;;;;;;;6.95;2.15;;;18.40;97.90;;;;;;10057900;28;20087;-66
2022/10/06 00:24:09;;;;;;;2.95;2.17;;;18.30;98.00;;;;;;10053914;28;20499;-66
2022/10/06 00:29:00;;;;;;;2.58;1.45;;;18.30;98.20;;;;;;10054504;28;20033;-66
2022/10/06 00:33:50;;;;;;;2.78;1.63;;;18.30;98.40;;;;;;10054022;28;20021;-67
2022/10/06 00:38:41;;;;;;;3.85;1.73;;;18.20;98.50;;;;;;10053700;28;20392;-66
2022/10/06 00:43:50;;;;;;;3.00;1.95;;;18.10;98.60;;;;;;10058383;28;20574;-65
2022/10/06 00:48:42;;;;;;;5.50;2.35;;;18.00;98.90;;;;;;10049498;28;20549;-67
2022/10/06 00:53:32;;;;;;;2.55;1.70;;;17.90;99.00;;;;;;10050852;28;20385;-66
2022/10/06 00:58:23;;;;;;;3.25;1.85;;;17.80;99.20;;;;;;10049872;28;20017;-66
2022/10/06 01:03:36;;;;;;;2.40;1.65;;;17.80;99.30;;;;;;10049768;28;20045;-66
2022/10/06 01:08:27;;;;;;;3.40;1.70;;;17.70;99.40;;;;;;10047505;28;20096;-66
2022/10/06 01:13:19;;;;;;;2.55;1.73;;;17.70;99.40;;;;;;10053106;28;20365;-67
2022/10/06 01:18:13;;;;;;;3.15;1.58;;;17.80;99.40;;;;;;10053456;28;20214;-67
2022/10/06 01:23:09;;;;;;;2.83;1.90;;;17.70;99.50;;;;;;10053127;28;20447;-65
2022/10/06 01:28:02;;;;;;;4.20;2.20;;;17.70;99.70;;;;;;10057934;28;20047;-67
2022/10/06 01:32:53;;;;;;;3.53;2.35;;;17.60;99.70;;;;;;10053020;28;20075;-66
2022/10/06 01:37:44;;;;;;;2.85;1.95;;;17.60;99.80;;;;;;10053589;28;20085;-66
2022/10/06 01:42:35;;;;;;;3.50;2.13;;;17.60;99.90;;;;;;10051036;28;20179;-66
2022/10/06 01:47:26;;;;;;;3.20;1.75;;;17.60;99.90;;;;;;10052327;28;20047;-66
2022/10/06 01:52:16;;;;;;;4.78;2.33;;;17.60;99.90;;;;;;10058393;28;20099;-66
2022/10/06 01:57:07;;;;;;;2.97;1.90;;;17.50;99.90;;;;;;10068873;28;20233;-66
2022/10/06 02:01:58;;;;;;;2.95;2.55;;;17.50;99.90;;;;;;10059162;28;20101;-67
2022/10/06 02:06:50;;;;;;;4.00;2.05;;;17.40;99.90;;;;;;10059276;28;20045;-67
2022/10/06 02:11:41;;;;;;;3.78;2.10;;;17.50;99.90;;;;;;10059470;28;20128;-67
2022/10/06 02:16:31;;;;;;;3.08;2.05;;;17.30;99.90;;;;;;10055192;28;20563;-67
2022/10/06 02:21:22;;;;;;;5.88;2.08;;;17.40;99.90;;;;;;10053714;28;20379;-67
2022/10/06 02:26:17;;;;;;;3.35;2.15;;;17.40;99.90;;;;;;10054934;28;21769;-67
2022/10/06 02:31:09;;;;;;;5.75;2.10;;;17.40;99.90;;;;;;10053608;28;20147;-67
2022/10/06 02:36:00;;;;;;;3.05;2.40;;;17.40;99.90;;;;;;10053797;28;20411;-67
2022/10/06 02:40:52;;;;;;;4.32;2.17;;;17.40;99.90;;;;;;10053608;28;20042;-67
2022/10/06 02:45:43;;;;;;;3.95;2.17;;;17.50;99.90;;;;;;10057963;28;20034;-67
2022/10/06 02:50:34;;;;;;;3.88;2.40;;;17.50;99.90;;;;;;10056600;28;20044;-66
2022/10/06 02:55:25;;;;;;;2.80;1.92;;;17.60;99.90;;;;;;10065725;28;20037;-66
2022/10/06 03:00:16;;;;;;;3.15;1.98;;;17.60;99.90;;;;;;10059081;28;20018;-67
2022/10/06 03:05:07;;;;;;;4.32;2.30;;;17.70;99.90;;;;;;10057239;28;20041;-67
2022/10/06 03:09:57;;;;;;;3.17;2.80;;;17.70;99.90;;;;;;10055990;28;20038;-66
2022/10/06 03:14:48;;;;;;;2.75;1.90;;;17.80;99.90;;;;;;10058391;28;20247;-66
2022/10/06 03:19:39;;;;;;;3.88;1.80;;;17.80;99.90;;;;;;10056293;28;20072;-67
2022/10/06 03:24:29;;;;;;;4.57;2.17;;;17.80;99.90;;;;;;10055029;28;20550;-67
2022/10/06 03:29:20;;;;;;;4.95;2.33;;;17.80;99.90;;;;;;10056005;28;20029;-68
2022/10/06 03:34:12;;;;;;;6.50;2.88;;;17.90;99.90;;;;;;10055242;28;20120;-66
2022/10/06 03:39:04;;;;;;;4.47;2.08;;;17.80;99.90;;;;;;10059257;28;20021;-66
2022/10/06 03:43:56;;;;;;;5.40;2.20;;;17.70;99.90;;;;;;10054996;28;20600;-67
2022/10/06 03:48:48;;;;;;;5.00;2.17;;;17.70;99.90;;;;;;10051681;28;20026;-68
2022/10/06 03:53:43;;;;;;;4.35;1.75;;;17.70;99.90;;;;;;10051567;28;20021;-67
2022/10/06 03:58:36;;;;;;;4.05;2.10;;;17.70;99.90;;;;;;10051283;28;20029;-67
2022/10/06 04:03:27;;;;;;;5.38;1.73;;;17.60;99.90;;;;;;10051182;28;20030;-67
2022/10/06 04:08:18;;;;;;;5.68;1.70;;;17.60;99.90;;;;;;10051061;28;20037;-66
2022/10/06 04:13:08;;;;;;;1.73;1.05;;;17.60;99.90;;;;;;10052253;28;20140;-66
2022/10/06 04:17:59;;;;;;;2.67;1.35;;;17.60;99.90;;;;;;10054194;28;20118;-66
2022/10/06 04:22:50;;;;;;;2.58;1.02;;;17.50;99.90;;;;;;10053775;28;20029;-67
2022/10/06 04:27:41;;;;;;;2.22;0.90;;;17.50;99.90;;;;;;10054095;28;20032;-67
2022/10/06 04:32:31;;;;;;;2.45;0.85;;;17.50;99.90;;;;;;10052191;28;20121;-66
2022/10/06 04:37:22;;;;;;;2.42;0.88;;;17.50;99.90;;;;;;10053665;28;20513;-67
2022/10/06 04:42:13;;;;;;;4.82;1.15;;;17.50;99.90;;;;;;10088060;28;20484;-66
2022/10/06 04:47:03;;;;;;;2.03;1.17;;;17.50;99.90;;;;;;10053969;28;20538;-67
2022/10/06 04:51:54;;;;;;;2.13;0.80;;;17.40;99.90;;;;;;10053881;28;20078;-67
2022/10/06 04:56:45;;;;;;;1.52;0.70;;;17.40;99.90;;;;;;10062134;28;20124;-67
2022/10/06 05:01:36;;;;;;;0.95;0.73;;;17.50;99.90;;;;;;10052832;28;20306;-67
2022/10/06 05:06:30;;;;;;;2.97;0.77;;;17.40;99.90;;;;;;10052220;28;20495;-66
2022/10/06 05:11:22;;;;;;;1.58;0.77;;;17.40;99.90;;;;;;10052172;28;20018;-66
2022/10/06 05:16:15;;;;;;;1.15;0.77;;;17.40;99.90;;;;;;10048744;28;20056;-67
2022/10/06 05:21:12;;;;;;;4.68;1.30;;;17.40;99.90;;;;;;10048853;28;20056;-68
2022/10/06 05:26:04;;;;;;;4.78;1.10;;;17.30;99.90;;;;;;10053668;28;20021;-66
2022/10/06 05:31:00;;;;;;;1.17;0.88;;;17.40;99.90;;;;;;10055981;28;20033;-68
2022/10/06 05:35:58;;;;;;;3.95;1.10;;;17.30;99.90;;;;;;10056668;28;20014;-68
2022/10/06 05:40:49;;;;;;;2.13;1.02;;;17.30;99.90;;;;;;10058916;28;20037;-67
2022/10/06 05:45:40;;;;;;;2.60;1.08;;;17.30;99.90;;;;;;10059990;28;20443;-66
2022/10/06 05:50:31;;;;;;;12.30;2.67;;;17.30;99.90;;;;;;10058990;28;20079;-67
2022/10/06 05:55:21;;;;;;;2.38;1.75;;;17.40;99.90;;;;;;10069854;28;20516;-68
2022/10/06 06:00:12;;;;;;;4.68;0.80;;;17.50;99.90;;;;;;10059990;28;20063;-70
2022/10/06 06:05:03;;;;;;;2.10;1.00;;;17.50;99.90;;;;;;10062524;28;20063;-68
2022/10/06 06:09:54;;;;;;;4.55;1.40;;;17.50;99.90;;;;;;10090933;28;20049;-68
2022/10/06 06:19:54;;;;;;;5.47;1.00;;;17.50;99.90;;;;;;10065663;28;20040;-67
2022/10/06 06:24:44;;;;;;;2.13;1.25;;;17.50;99.90;;;;;;10065169;28;20522;-68
2022/10/06 06:29:35;;;;;;;3.25;0.80;;;17.40;99.90;;;;;;10058984;28;20073;-67
2022/10/06 06:34:26;;;;;;;5.63;1.35;;;17.40;99.90;;;;;;10076469;28;20021;-67
2022/10/06 06:39:18;;;;;;;2.70;0.65;;;17.40;99.90;;;;;;10081753;28;20013;-65
2022/10/06 06:44:12;;;;;;;5.55;1.85;;;17.50;99.90;;;;;;10082897;28;20064;-61
2022/10/06 06:49:04;;;;;;;6.00;1.35;;;17.40;99.90;;;;;;10071088;28;20035;-65
2022/10/06 06:53:58;;;;;;;3.65;0.80;;;17.50;99.90;;;;;;10073587;28;20029;-66
2022/10/06 06:58:49;;;;;;;3.83;1.52;;;17.50;99.90;;;;;;10070598;28;20053;-65
2022/10/06 07:03:41;;;;;;;3.17;0.82;;;17.50;99.90;;;;;;10069971;28;20253;-66
2022/10/06 07:08:31;;;;;;;4.45;1.40;;;17.50;99.90;;;;;;10054651;28;20056;-66
2022/10/06 07:13:22;;;;;;;3.25;0.90;;;17.60;99.90;;;;;;10071056;28;20079;-65
2022/10/06 07:28:31;;;;;;;7.45;2.88;;;18.00;99.90;;;;;;10071900;28;20024;-63
2022/10/06 07:33:22;;;;;;;3.35;1.38;;;18.00;99.90;;;;;;10082110;28;20472;-64
2022/10/06 07:38:12;;;;;;;2.42;0.93;;;18.00;99.90;;;;;;10083395;28;20529;-65
2022/10/06 07:43:03;;;;;;;2.10;1.33;;;17.90;99.90;;;;;;10069456;28;20049;-65
2022/10/06 07:47:57;;;;;;;3.25;1.10;;;17.90;99.90;;;;;;10065292;28;20053;-65
2022/10/06 07:52:48;;;;;;;4.13;1.63;;;18.10;99.90;;;;;;10062904;28;20041;-66
2022/10/06 07:57:39;;;;;;;7.50;2.22;;;18.20;99.90;;;;;;10071937;28;20419;-66
2022/10/06 08:02:29;;;;;;;3.00;1.73;;;18.20;99.90;;;;;;10058074;28;20057;-64
2022/10/06 08:07:20;;;;;;;3.53;1.60;;;18.20;99.90;;;;;;10055754;28;20555;-69
2022/10/06 08:17:20;;;;;;;5.68;1.80;;;18.30;99.90;;;;;;10052114;28;20118;-67
2022/10/06 08:22:11;;;;;;;5.43;2.47;;;18.30;99.90;;;;;;10050245;28;20071;-66
2022/10/06 08:27:02;;;;;;;5.32;1.75;;;18.40;99.90;;;;;;10049963;28;20314;-69
2022/10/06 08:31:52;;;;;;;4.10;1.70;;;18.40;99.90;;;;;;10053252;28;20029;-65
2022/10/06 08:36:43;;;;;;;6.03;1.02;;;18.60;99.90;;;;;;10050795;28;20030;-67
2022/10/06 08:41:50;;;;;;;4.60;1.40;;;18.50;99.90;;;;;;10048910;28;20041;-66
2022/10/06 08:47:13;;;;;;;3.85;1.45;;;18.60;99.90;;;;;;10063679;28;21141;-67
2022/10/06 08:52:22;;;;;;;4.43;1.45;;;18.60;99.90;;;;;;10075132;28;20119;-64
2022/10/06 08:57:23;;;;;;;3.70;1.50;;;18.60;99.90;;;;;;10057407;28;20307;-67
2022/10/06 09:02:27;;;;;;;3.53;1.50;;;18.70;99.90;;;;;;10057201;28;20021;-66
2022/10/06 09:07:34;;;;;;;4.70;1.00;;;18.90;99.90;;;;;;10057565;28;20125;-64
2022/10/06 09:12:28;;;;;;;4.18;1.00;;;18.80;99.90;;;;;;10059452;28;20555;-64
2022/10/06 09:17:30;;;;;;;6.20;2.10;;;18.80;99.90;;;;;;10059580;28;20052;-65
2022/10/06 09:22:23;;;;;;;2.25;0.75;;;18.90;99.90;;;;;;10061727;28;20442;-66
2022/10/06 09:27:23;;;;;;;2.42;1.02;;;18.80;99.90;;;;;;10061379;28;20013;-67
2022/10/06 09:32:15;;;;;;;6.65;0.95;;;18.90;99.90;;;;;;10060769;28;20032;-67
2022/10/06 09:37:12;;;;;;;1.90;1.15;;;18.80;99.90;;;;;;10061084;28;20096;-70
2022/10/06 09:42:10;;;;;;;6.88;1.55;;;19.00;99.90;;;;;;10087328;28;20053;-67
2022/10/06 09:47:01;;;;;;;7.38;1.77;;;19.30;99.90;;;;;;10053717;28;20507;-61
2022/10/06 09:52:00;;;;;;;2.55;1.05;;;19.30;99.90;;;;;;10055044;28;20034;-60
2022/10/06 09:56:52;;;;;;;2.30;0.88;;;19.50;99.80;;;;;;10056629;28;20029;-60
2022/10/06 10:01:54;;;;;;;4.30;1.45;;;19.90;99.70;;;;;;10055164;28;20041;-61
2022/10/06 10:06:44;;;;;;;2.03;1.25;;;20.00;99.40;;;;;;10053074;28;20021;-62
2022/10/06 10:16:46;;;;;;;6.80;2.17;;;20.40;98.80;;;;;;10055248;28;20056;-61
2022/10/06 10:21:36;;;;;;;3.78;1.50;;;20.40;98.90;;;;;;10058458;28;20108;-64
2022/10/06 10:26:46;;;;;;;2.50;1.05;;;20.20;98.90;;;;;;10058684;28;20116;-63
2022/10/06 10:32:01;;;;;;;2.72;0.90;;;19.90;99.00;;;;;;10058680;28;20022;-62
2022/10/06 10:36:57;;;;;;;;;;;19.70;98.90;;;;;;10050626;28;20040;-61
2022/10/06 10:41:53;;;;;;;5.18;1.05;;;19.30;99.10;;;;;;10057703;28;20302;-62
2022/10/06 10:46:50;;;;;;;3.30;0.80;;;19.20;99.10;;;;;;10054613;28;20105;-61
2022/10/06 10:51:52;;;;;;;4.75;1.42;;;19.30;98.80;;;;;;10058705;28;20033;-63
2022/10/06 10:56:43;;;;;;;8.05;1.25;;;19.70;98.50;;;;;;10059622;28;20032;-62
2022/10/06 11:01:43;;;;;;;8.40;2.65;;;19.50;98.50;;;;;;10059465;28;20065;-63
2022/10/06 11:07:05;;;;;;;5.93;1.10;;;19.40;98.50;;;;;;10060392;28;20487;-62
2022/10/06 11:12:14;;;;;;;7.15;1.60;;;19.40;98.30;;;;;;10059058;28;20022;-61
2022/10/06 11:17:46;;;;;;;7.78;2.55;;;19.40;98.30;;;;;;10053177;28;20022;-62
2022/10/06 11:23:00;;;;;;;5.00;1.75;;;19.40;98.20;;;;;;10051357;28;20128;-61
2022/10/06 11:27:59;;;;;;;1.80;1.10;;;19.30;98.40;;;;;;10053611;28;20053;-63
2022/10/06 11:33:08;;;;;;;3.72;1.35;;;19.30;98.20;;;;;;10054206;28;20064;-61
2022/10/06 11:38:18;;;;;;;3.25;1.48;;;19.30;98.20;;;;;;10054903;28;20029;-60
2022/10/06 11:43:26;;;;;;;3.30;1.33;;;19.40;98.10;;;;;;10050388;28;20037;-60
2022/10/06 11:48:35;;;;;;;3.95;1.00;;;19.50;98.00;;;;;;10056315;28;20021;-62
2022/10/06 11:53:35;;;;;;;4.10;1.38;;;19.60;98.00;;;;;;10054669;28;20112;-62
2022/10/06 11:58:26;;;;;;;2.95;0.90;;;19.70;97.80;;;;;;10056113;28;20161;-61
2022/10/06 12:03:42;;;;;;;5.78;1.13;;;19.60;97.70;;;;;;10055488;28;20030;-62
2022/10/06 12:08:40;;;;;;;3.75;0.73;;;19.60;97.80;;;;;;10053178;28;20035;-61
2022/10/06 12:13:38;;;;;;;12.52;2.00;;;19.60;97.80;;;;;;10055695;28;20018;-62
2022/10/06 12:18:55;;;;;;;3.00;1.08;;;19.70;97.60;;;;;;10060129;28;20048;-61
2022/10/06 12:23:58;;;;;;;4.05;1.30;;;19.70;97.50;;;;;;10055443;28;20030;-62
2022/10/06 12:29:10;;;;;;;2.88;1.30;;;19.70;97.40;;;;;;10054401;28;20140;-61
2022/10/06 12:34:01;;;;;;;4.47;1.25;;;19.70;97.50;;;;;;10055942;28;20192;-61
2022/10/06 12:39:06;;;;;;;3.00;1.10;;;19.60;97.30;;;;;;10054457;28;20116;-61
2022/10/06 12:43:57;;;;;;;3.45;0.90;;;19.60;97.20;;;;;;10052900;28;20053;-63
2022/10/06 12:48:54;;;;;;;2.88;1.42;;;19.60;97.10;;;;;;10050595;28;20526;-61
2022/10/06 12:54:03;;;;;;;5.05;1.13;;;19.60;97.00;;;;;;10047865;28;20451;-61
2022/10/06 12:58:54;;;;;;;2.72;1.00;;;19.70;96.90;;;;;;10050019;28;20106;-59
2022/10/06 13:03:49;;;;;;;3.85;0.70;;;19.90;96.80;;;;;;10048934;28;20029;-60
2022/10/06 13:08:40;;;;;;;2.38;0.90;;;20.20;96.60;;;;;;10049505;28;20033;-60
2022/10/06 13:13:34;;;;;;;2.15;0.82;;;20.60;96.70;;;;;;10049729;28;20434;-61
2022/10/06 13:18:27;;;;;;;7.43;1.10;;;21.10;96.60;;;;;;10054891;28;20424;-60
2022/10/06 13:23:26;;;;;;;2.15;1.00;;;22.00;96.30;;;;;;10052940;28;20488;-60
2022/10/06 13:28:40;;;;;;;3.28;1.60;;;22.30;96.30;;;;;;10052542;28;20132;-60
2022/10/06 13:33:42;;;;;;;3.63;0.80;;;22.50;96.10;;;;;;10053350;28;20404;-58
2022/10/06 13:38:34;;;;;;;1.33;0.70;;;23.40;95.30;;;;;;10044916;28;20060;-60
2022/10/06 13:43:25;;;;;;;3.63;1.75;;;23.80;95.20;;;;;;10057105;28;20107;-61
2022/10/06 13:48:19;;;;;;;3.63;0.98;;;25.00;94.80;;;;;;10060228;28;20503;-60
2022/10/06 13:53:28;;;;;;;4.72;1.35;;;25.20;93.80;;;;;;10060703;28;20036;-59
2022/10/06 13:58:23;;;;;;;2.25;1.02;;;25.10;93.10;;;;;;10061424;28;20075;-60
2022/10/06 14:03:23;;;;;;;5.43;1.52;;;24.70;92.80;;;;;;10073604;28;20029;-60
2022/10/06 14:08:20;;;;;;;2.85;1.13;;;23.90;92.70;;;;;;10060201;28;20079;-59
2022/10/06 14:13:19;;;;;;;2.60;0.90;;;25.40;91.80;;;;;;10066396;28;20036;-62
2022/10/06 14:18:18;;;;;;;1.42;0.70;;;25.80;90.90;;;;;;10058542;28;20033;-61
2022/10/06 14:23:31;;;;;;;3.45;1.35;;;26.10;90.40;;;;;;10054500;28;20415;-61
2022/10/06 14:28:22;;;;;;;4.13;1.02;;;27.00;88.90;;;;;;10053453;28;20017;-60
2022/10/06 14:33:12;;;;;;;4.10;1.08;;;28.00;87.60;;;;;;10054386;28;20033;-60
2022/10/06 14:38:03;;;;;;;7.05;1.90;;;29.10;83.60;;;;;;10056094;28;20392;-59
2022/10/06 14:42:54;;;;;;;5.97;1.33;;;29.20;80.60;;;;;;10053552;28;20594;-59
2022/10/06 14:47:45;;;;;;;6.05;3.60;;;29.70;78.00;;;;;;10055670;28;20033;-59
2022/10/06 14:52:36;;;;;;;3.53;1.30;;;29.70;75.90;;;;;;10066426;28;20407;-61
2022/10/06 14:57:27;;;;;;;4.00;1.17;;;30.10;73.40;;;;;;10057371;28;20009;-58
2022/10/06 15:02:19;;;;;;;6.25;1.33;;;29.80;72.10;;;;;;10057528;28;20037;-58
2022/10/06 15:12:18;;;;;;;2.22;0.90;;;29.90;68.60;;;;;;10056468;28;20084;-60
2022/10/06 15:17:09;;;;;;;3.80;1.10;;;31.20;66.50;;;;;;10056619;28;20527;-60
2022/10/06 15:22:00;;;;;;;2.45;1.30;;;30.80;66.30;;;;;;10072456;28;20039;-61
2022/10/06 15:32:01;;;;;;;3.60;1.52;;;31.70;63.40;;;;;;10057639;28;20068;-61
2022/10/06 15:36:53;;;;;;;5.35;1.35;;;30.90;62.30;;;;;;10058849;28;20033;-61
2022/10/06 15:41:45;;;;;;;3.17;1.33;;;30.20;62.60;;;;;;10060792;28;20049;-60
2022/10/06 15:46:38;;;;;;;5.15;2.90;;;30.40;61.40;;;;;;10053080;28;20025;-60
2022/10/06 15:51:30;;;;;;;4.40;1.73;;;29.80;61.70;;;;;;10051659;28;20021;-59
2022/10/06 15:56:21;;;;;;;9.20;1.95;;;29.70;61.00;;;;;;10050983;28;20053;-60
2022/10/06 16:01:33;;;;;;;3.58;1.15;;;28.90;60.90;;;;;;10056327;28;20037;-60
2022/10/06 16:06:48;;;;;;;2.65;1.10;;;28.00;61.30;;;;;;10051091;28;20048;-59
2022/10/06 16:11:38;;;;;;;;;;;26.10;62.70;;;;;;10049956;28;20484;-60
2022/10/06 16:16:29;;;;;;;2.25;0.95;;;23.90;65.50;;;;;;10054991;28;19909;-59
2022/10/06 16:21:19;;;;;;;4.50;1.05;;;22.80;66.70;;;;;;10058387;28;20132;-60
2022/10/06 16:26:10;;;;;;;4.63;1.00;;;22.10;67.20;;;;;;10048563;28;20041;-62
2022/10/06 16:31:00;;;;;;;1.95;0.90;;;21.70;67.30;;;;;;10053372;28;20013;-60
2022/10/06 16:35:55;;;;;;;2.67;1.02;;;21.50;67.30;;;;;;10054856;28;20395;-60
2022/10/06 16:41:02;;;;;;;6.00;1.80;;;21.40;67.60;;;;;;10054265;28;20573;-59
2022/10/06 16:45:57;;;;;;;4.82;2.63;;;21.20;67.80;;;;;;10064014;28;20095;-61
2022/10/06 16:50:48;;;;;;;9.25;2.53;;;20.90;68.10;;;;;;10058946;28;20108;-60
2022/10/06 16:55:40;;;;;;;3.65;2.03;;;20.70;68.80;;;;;;10057822;28;20029;-60
2022/10/06 17:00:31;;;;;;;3.13;0.95;;;20.50;69.80;;;;;;10047750;28;20026;-61
2022/10/06 17:05:22;;;;;;;4.47;1.50;;;20.40;70.20;;;;;;10051786;28;20091;-60
2022/10/06 17:10:13;;;;;;;7.70;2.22;;;20.20;71.00;;;;;;10053761;28;20072;-59
2022/10/06 17:15:03;;;;;;;3.80;1.88;;;20.10;71.60;;;;;;10083609;28;20518;-64
2022/10/06 17:19:54;;;;;;;8.40;2.13;;;20.00;71.90;;;;;;10057485;28;20025;-63
2022/10/06 17:24:45;;;;;;;6.38;3.10;;;19.90;72.50;;;;;;10057285;28;20408;-62
2022/10/06 17:29:35;;;;;;;3.17;1.42;;;19.90;73.10;;;;;;10056508;28;20095;-62
2022/10/06 17:34:27;;;;;;;7.70;2.13;;;19.70;73.90;;;;;;10059724;28;20017;-62
2022/10/06 17:39:20;;;;;;;7.03;1.92;;;19.40;74.50;;;;;;10056138;28;20099;-62
2022/10/06 17:44:15;;;;;;;4.80;1.80;;;19.30;75.30;;;;;;10054227;28;20107;-65
2022/10/06 17:49:07;;;;;;;6.65;1.77;;;19.20;75.80;;;;;;10059689;28;20536;-61
2022/10/06 17:54:01;;;;;;;4.18;1.42;;;19.20;76.30;;;;;;10059531;28;20087;-61
2022/10/06 17:58:54;;;;;;;3.17;1.55;;;19.10;76.60;;;;;;10059986;28;20029;-59
2022/10/06 18:03:46;;;;;;;9.20;2.13;;;19.10;76.80;;;;;;10059962;28;20038;-61
2022/10/06 18:08:38;;;;;;;6.05;2.03;;;18.90;77.20;;;;;;10059749;28;20056;-61
2022/10/06 18:13:30;;;;;;;3.70;1.38;;;18.90;77.80;;;;;;10060644;28;20091;-61
2022/10/06 18:18:23;;;;;;;4.18;2.08;;;18.70;78.00;;;;;;10059878;28;20434;-60
2022/10/06 18:23:14;;;;;;;4.00;2.15;;;18.50;78.60;;;;;;10060007;28;20054;-61
2022/10/06 18:28:06;;;;;;;5.28;1.70;;;18.50;79.20;;;;;;10058602;28;20106;-61
2022/10/06 18:32:56;;;;;;;3.10;2.10;;;18.60;79.40;;;;;;10058119;28;20045;-60
2022/10/06 18:37:47;;;;;;;10.40;4.20;;;18.70;79.20;;;;;;10059224;28;20013;-59
2022/10/06 18:42:38;;;;;;;6.80;2.53;;;18.70;79.50;;;;;;10059370;28;20045;-61
2022/10/06 18:52:38;;;;;;;7.20;1.80;;;18.60;79.80;;;;;;10053712;28;20234;-62
2022/10/06 18:57:30;;;;;;;6.82;2.00;;;18.80;80.30;;;;;;10050444;28;20030;-62
2022/10/06 19:02:20;;;;;;;9.13;2.72;;;18.60;80.20;;;;;;10066251;28;20483;-61
2022/10/06 19:07:11;;;;;;;4.65;2.15;;;18.70;80.20;;;;;;10053914;28;20116;-62
2022/10/06 19:12:01;;;;;;;9.98;2.38;;;18.30;80.40;;;;;;10054248;28;20028;-59
2022/10/06 19:16:57;;;;;;;7.70;2.78;;;18.30;80.80;;;;;;10055043;28;20025;-62
2022/10/06 19:21:55;;;;;;;4.80;2.63;;;18.20;80.60;;;;;;10047991;28;20069;-60
2022/10/06 19:26:49;;;;;;;3.25;1.70;;;18.00;81.10;;;;;;10061197;28;20030;-61
2022/10/06 19:31:43;;;;;;;6.93;1.77;;;18.00;81.40;;;;;;10057605;28;20056;-60
2022/10/06 19:36:34;;;;;;;4.65;2.15;;;18.00;81.40;;;;;;10053504;28;20511;-60
2022/10/06 19:46:36;;;;;;;9.35;2.28;;;17.90;81.90;;;;;;10055718;28;20040;-60
2022/10/06 19:51:26;;;;;;;9.75;2.67;;;18.00;81.90;;;;;;10056461;28;20030;-59
2022/10/06 19:56:23;;;;;;;7.85;2.90;;;17.90;82.10;;;;;;10059252;28;20132;-61
2022/10/06 20:01:15;;;;;;;8.10;2.97;;;17.70;82.40;;;;;;10045793;28;20025;-62
2022/10/06 20:06:11;;;;;;;12.00;4.57;;;17.60;82.80;;;;;;10054476;28;20050;-61
2022/10/06 20:11:14;;;;;;;8.30;2.38;;;17.80;83.20;;;;;;10057922;28;20499;-62
2022/10/06 20:16:13;;;;;;;4.20;2.15;;;17.80;83.50;;;;;;10057640;28;20025;-62
2022/10/06 20:21:04;;;;;;;9.05;2.80;;;17.70;83.60;;;;;;10043363;28;20030;-62
2022/10/06 20:26:05;;;;;;;3.35;2.22;;;17.50;84.20;;;;;;10053078;28;20266;-62
2022/10/06 20:30:56;;;;;;;6.93;2.10;;;17.50;84.50;;;;;;10055057;28;20026;-64
2022/10/06 20:35:46;;;;;;;6.88;2.67;;;17.30;84.90;;;;;;10049912;28;20029;-64
2022/10/06 20:40:47;;;;;;;4.45;1.70;;;17.20;85.40;;;;;;10050616;28;20056;-62
2022/10/06 20:45:38;;;;;;;7.82;2.30;;;17.20;85.30;;;;;;10050888;28;20468;-60
2022/10/06 20:50:29;;;;;;;4.93;2.25;;;17.20;85.90;;;;;;10055497;28;20116;-60
2022/10/06 20:55:20;;;;;;;6.20;2.20;;;17.30;85.70;;;;;;10053440;28;20037;-61
2022/10/06 21:00:11;;;;;;;4.22;2.05;;;17.40;86.00;;;;;;10055385;28;20526;-60
2022/10/06 21:05:02;;;;;;;3.08;2.00;;;17.50;86.40;;;;;;10068593;28;20033;-61
2022/10/06 21:09:52;;;;;;;6.15;2.10;;;17.30;86.90;;;;;;10061373;28;20021;-60
2022/10/06 21:14:43;;;;;;;6.90;1.73;;;17.30;87.10;;;;;;10055801;28;20496;-62
2022/10/06 21:19:36;;;;;;;5.05;1.95;;;17.40;87.30;;;;;;10056090;28;20026;-61
2022/10/06 21:24:27;;;;;;;6.18;1.50;;;17.30;87.20;;;;;;10055969;28;20073;-62
2022/10/06 21:29:17;;;;;;;2.40;1.25;;;17.20;87.90;;;;;;10055671;28;20064;-66
2022/10/06 21:34:09;;;;;;;6.95;2.03;;;17.20;88.30;;;;;;10057208;28;20527;-65
2022/10/06 21:39:03;;;;;;;2.83;1.70;;;17.20;88.40;;;;;;10057935;28;20041;-61
2022/10/06 21:44:01;;;;;;;7.20;1.65;;;16.90;88.70;;;;;;10053478;28;20046;-62
2022/10/06 21:48:54;;;;;;;2.65;1.50;;;16.80;88.90;;;;;;10048329;28;20109;-63
2022/10/06 21:53:45;;;;;;;3.88;1.80;;;16.80;89.50;;;;;;10048576;28;20467;-61
2022/10/06 21:58:36;;;;;;;5.68;1.95;;;16.80;89.90;;;;;;10048473;28;20108;-61
2022/10/06 22:03:26;;;;;;;4.70;1.58;;;16.70;90.10;;;;;;10049175;28;20223;-62
2022/10/06 22:08:17;;;;;;;1.73;1.33;;;16.70;90.00;;;;;;10055371;28;20033;-61
2022/10/06 22:13:07;;;;;;;2.38;1.00;;;16.80;90.30;;;;;;10058718;28;20030;-62
2022/10/06 22:17:58;;;;;;;3.42;1.58;;;16.70;90.40;;;;;;10058608;28;20034;-61
2022/10/06 22:22:50;;;;;;;5.75;2.08;;;16.50;90.60;;;;;;10060501;28;20076;-61
2022/10/06 22:27:41;;;;;;;3.40;2.38;;;16.30;90.80;;;;;;10061116;28;20045;-61
2022/10/06 22:32:31;;;;;;;10.65;3.50;;;16.40;91.00;;;;;;10061721;28;20017;-61
2022/10/06 22:37:22;;;;;;;7.97;2.72;;;16.50;91.00;;;;;;10059578;28;20488;-61
2022/10/06 22:42:13;;;;;;;6.70;1.88;;;16.60;91.10;;;;;;10060600;28;20467;-61
2022/10/06 22:47:03;;;;;;;4.03;1.65;;;16.50;91.40;;;;;;10060721;28;20029;-62
2022/10/06 22:51:54;;;;;;;6.05;2.40;;;16.60;91.50;;;;;;10060646;28;20018;-61
2022/10/06 22:56:45;;;;;;;7.40;2.38;;;16.60;91.60;;;;;;10059849;28;20022;-62
2022/10/06 23:01:35;;;;;;;5.90;2.20;;;16.60;91.80;;;;;;10061441;28;20033;-61
2022/10/06 23:06:29;;;;;;;4.57;2.00;;;16.60;92.00;;;;;;10060604;28;20033;-62
2022/10/06 23:11:21;;;;;;;7.50;2.20;;;16.60;91.90;;;;;;10057470;28;20032;-61
2022/10/06 23:16:14;;;;;;;4.68;1.60;;;16.60;92.00;;;;;;10055955;28;20042;-62
2022/10/06 23:21:10;;;;;;;5.40;2.25;;;16.40;92.20;;;;;;10056271;28;20495;-63
2022/10/06 23:26:10;;;;;;;2.88;1.50;;;16.30;92.20;;;;;;10054697;28;20044;-61
2022/10/06 23:31:03;;;;;;;4.07;1.33;;;16.20;92.50;;;;;;10052824;28;20471;-61
2022/10/06 23:35:58;;;;;;;4.68;1.48;;;16.30;92.40;;;;;;10054697;28;20053;-62
2022/10/06 23:40:49;;;;;;;4.70;1.73;;;16.40;92.60;;;;;;10049434;28;20428;-61
2022/10/06 23:45:39;;;;;;;3.25;1.30;;;16.50;92.50;;;;;;10053398;28;20029;-61
2022/10/06 23:50:30;;;;;;;3.88;1.42;;;16.60;92.60;;;;;;10057381;28;20029;-62
2022/10/06 23:55:21;;;;;;;2.30;1.25;;;16.40;92.70;;;;;;10058196;28;20506;-62
